Time;durP1;ratioP1;P1;durP2;ratioP2;P2;SDS_P1;SDS_P2;PMS_P1;PMS_P2;Temp;Humidity;BMP_temperature;BMP_pressure;BME280_temperature;BME280_humidity;BME280_pressure;Samples;Min_cycle;Max_cycle;Signal;HPM_P1;HPM_P2
2022/05/24 00:01:18;;;;;;;4.05;2.33;;;;;;;;;;4945834;28;20657;-81
2022/05/24 00:03:45;;;;;;;3.92;2.50;;;;;;;21.46;63.97;98777.75;4959578;28;20047;-81
2022/05/24 00:06:12;;;;;;;3.70;2.55;;;;;;;;;;4928259;28;20414;-81
2022/05/24 00:08:41;;;;;;;3.30;2.38;;;;;;;21.44;63.45;98760.94;4921355;28;20052;-81
2022/05/24 00:11:07;;;;;;;4.00;2.42;;;;;;;21.44;63.62;98779.03;4986616;28;20033;-81
2022/05/24 00:13:34;;;;;;;3.65;2.45;;;;;;;21.42;63.50;98773.03;4961938;28;20051;-83
2022/05/24 00:16:05;;;;;;;7.65;3.17;;;;;;;21.41;63.41;98779.50;4946587;28;20039;-89
2022/05/24 00:18:32;;;;;;;6.13;2.80;;;;;;;21.39;63.36;98777.03;4968066;28;20072;-89
2022/05/24 00:21:01;;;;;;;3.67;2.35;;;;;;;21.39;63.27;98774.31;4965504;28;20073;-89
2022/05/24 00:23:29;;;;;;;3.85;2.53;;;;;;;21.37;63.40;98775.59;4969064;28;20041;-89
2022/05/24 00:25:59;;;;;;;5.28;2.55;;;;;;;21.37;63.39;98772.88;4966077;28;20054;-80
2022/05/24 00:28:28;;;;;;;4.03;2.50;;;;;;;21.36;63.53;98774.78;4964054;28;20042;-81
2022/05/24 00:30:55;;;;;;;3.67;2.65;;;;;;;21.35;63.33;98775.84;4962710;28;20498;-89
2022/05/24 00:33:22;;;;;;;5.03;2.72;;;;;;;21.35;63.64;98778.53;4948099;28;20111;-81
2022/05/24 00:35:49;;;;;;;6.75;2.90;;;;;;;21.34;63.53;98779.56;4975748;28;20100;-81
2022/05/24 00:38:28;;;;;;;5.32;2.95;;;;;;;21.31;63.51;98779.22;4961173;28;20145;-80
2022/05/24 00:41:11;;;;;;;4.05;3.00;;;;;;;21.30;63.36;98777.59;4988325;28;20057;-89
2022/05/24 00:43:48;;;;;;;9.13;3.17;;;;;;;21.26;63.17;98782.59;4970105;28;20152;-79
2022/05/24 00:46:19;;;;;;;5.93;3.38;;;;;;;21.21;63.31;98779.78;4956375;28;20049;-80
2022/05/24 00:49:03;;;;;;;3.20;2.75;;;;;;;21.17;62.92;98775.91;4984952;28;20046;-80
2022/05/24 00:51:47;;;;;;;5.50;3.40;;;;;;;21.16;62.95;98775.06;4962241;28;20487;-81
2022/05/24 00:54:16;;;;;;;8.25;2.90;;;;;;;21.17;63.19;98767.81;4943827;28;20038;-81
2022/05/24 00:56:56;;;;;;;4.03;3.05;;;;;;;21.14;63.07;98765.56;4980379;28;20037;-81
2022/05/24 00:59:29;;;;;;;6.65;2.80;;;;;;;21.17;62.97;98786.72;4962437;28;20054;-83
2022/05/24 01:01:56;;;;;;;4.10;2.88;;;;;;;21.15;62.81;98778.00;4962245;28;20057;-83
2022/05/24 01:04:23;;;;;;;6.70;3.15;;;;;;;21.14;62.93;98777.19;4952431;28;20053;-83
2022/05/24 01:06:50;;;;;;;4.30;3.15;;;;;;;21.13;62.75;98782.81;4966082;28;20057;-83
2022/05/24 01:09:42;;;;;;;4.78;3.20;;;;;;;21.08;62.76;98783.50;4966065;28;20479;-83
2022/05/24 01:12:15;;;;;;;3.88;3.22;;;;;;;21.08;62.72;98785.38;4944527;28;20080;-83
2022/05/24 01:14:42;;;;;;;4.28;3.13;;;;;;;21.08;62.71;98774.59;4972695;28;20609;-82
2022/05/24 01:17:09;;;;;;;4.15;2.78;;;;;;;21.05;62.53;98785.84;4993541;28;20498;-80
2022/05/24 01:19:43;;;;;;;5.47;3.20;;;;;;;21.01;62.62;98786.31;4962849;28;20077;-80
2022/05/24 01:22:48;;;;;;;3.42;3.05;;;;;;;20.96;62.79;98778.06;4944593;28;20091;-90
2022/05/24 01:25:43;;;;;;;5.85;3.55;;;;;;;20.96;63.05;98782.63;4952101;28;20124;-90
2022/05/24 01:28:17;;;;;;;5.28;3.28;;;;;;;20.92;63.01;98778.75;4958774;28;20470;-91
2022/05/24 01:30:44;;;;;;;6.68;3.63;;;;;;;20.93;62.82;98773.13;4919902;28;20051;-90
2022/05/24 01:36:13;;;;;;;4.18;2.70;;;;;;;20.88;63.02;98774.84;4904822;28;20055;-90
2022/05/24 01:38:48;;;;;;;6.88;3.40;;;;;;;20.78;63.11;98765.41;4913289;28;20039;-90
2022/05/24 01:41:23;;;;;;;3.97;3.00;;;;;;;20.76;63.26;98778.34;4943354;28;20063;-90
2022/05/24 01:43:52;;;;;;;5.13;3.13;;;;;;;20.75;63.18;98786.66;4925020;28;20124;-83
2022/05/24 01:46:26;;;;;;;6.82;3.25;;;;;;;20.72;63.16;98779.03;4938240;28;20042;-79
2022/05/24 01:48:56;;;;;;;6.05;3.53;;;;;;;20.71;63.23;98771.97;4929996;28;20039;-79
2022/05/24 01:51:27;;;;;;;3.00;2.72;;;;;;;20.69;63.24;98766.00;4917215;28;20042;-79
2022/05/24 01:53:56;;;;;;;9.75;3.50;;;;;;;20.64;63.15;98774.75;4939649;28;20515;-90
2022/05/24 01:56:47;;;;;;;3.92;2.95;;;;;;;20.62;63.42;98778.72;4942215;28;20054;-79
2022/05/24 01:59:15;;;;;;;11.70;3.45;;;;;;;20.60;63.27;98771.69;4947211;28;20441;-80
2022/05/24 02:01:48;;;;;;;7.40;3.63;;;;;;;20.56;63.14;98772.38;4941665;28;20406;-80
2022/05/24 02:04:15;;;;;;;9.38;4.32;;;;;;;20.54;63.08;98771.75;4945793;28;20045;-80
2022/05/24 02:06:42;;;;;;;7.00;3.25;;;;;;;20.51;63.28;98770.31;4961565;28;20475;-79
2022/05/24 02:09:10;;;;;;;6.07;3.20;;;;;;;20.47;62.96;98768.31;4962413;28;20047;-79
2022/05/24 02:11:42;;;;;;;5.25;2.90;;;;;;;20.43;63.14;98764.41;4948486;28;20062;-79
2022/05/24 02:14:22;;;;;;;7.18;3.58;;;;;;;20.38;63.17;98768.63;4957818;28;20538;-80
2022/05/24 02:16:53;;;;;;;12.35;3.60;;;;;;;20.37;63.18;98758.84;4963834;28;20039;-79
2022/05/24 02:19:21;;;;;;;12.05;3.15;;;;;;;20.36;63.18;98751.81;4983142;28;20121;-79
2022/05/24 02:21:51;;;;;;;5.75;3.45;;;;;;;20.32;63.18;98757.88;4983556;28;20097;-90
2022/05/24 02:24:21;;;;;;;4.57;3.40;;;;;;;20.29;62.75;98756.47;4970358;28;20061;-82
2022/05/24 02:26:50;;;;;;;4.75;3.40;;;;;;;20.27;62.98;98753.16;4985412;28;20042;-89
2022/05/24 02:29:18;;;;;;;4.28;3.83;;;;;;;20.26;62.91;98756.94;4971199;28;20520;-90
2022/05/24 02:31:45;;;;;;;12.43;3.65;;;;;;;20.24;63.05;98759.00;4950700;28;20053;-83
2022/05/24 02:34:13;;;;;;;5.25;3.70;;;;;;;20.23;63.08;98756.56;4974829;28;20097;-83
2022/05/24 02:36:40;;;;;;;6.03;3.70;;;;;;;20.21;63.39;98755.97;4980150;28;20054;-79
2022/05/24 02:39:07;;;;;;;5.22;3.83;;;;;;;20.20;63.39;98760.53;4993582;28;20096;-81
2022/05/24 02:41:38;;;;;;;4.65;3.70;;;;;;;20.18;63.27;98762.63;4965513;28;20062;-81
2022/05/24 02:44:12;;;;;;;7.03;3.70;;;;;;;20.15;63.36;98753.13;4962047;28;20050;-83
2022/05/24 02:46:44;;;;;;;7.88;3.63;;;;;;;20.20;63.58;98757.00;4950498;28;20513;-81
2022/05/24 02:49:11;;;;;;;4.70;4.20;;;;;;;20.20;63.57;98754.28;4967503;28;20038;-81
2022/05/24 02:51:40;;;;;;;5.78;3.85;;;;;;;20.17;63.51;98756.41;4971938;28;20046;-81
2022/05/24 02:54:08;;;;;;;4.57;3.70;;;;;;;20.16;63.65;98754.75;4950759;28;20043;-81
2022/05/24 02:56:35;;;;;;;6.18;3.75;;;;;;;20.17;63.55;98758.25;4942308;28;20047;-81
2022/05/24 02:59:04;;;;;;;8.93;3.90;;;;;;;20.14;63.87;98750.63;4932063;28;20047;-83
2022/05/24 03:01:31;;;;;;;6.82;4.15;;;;;;;20.15;63.68;98749.59;4962560;28;20043;-82
2022/05/24 03:03:57;;;;;;;8.13;4.32;;;;;;;20.14;63.84;98746.06;4956485;28;20058;-81
2022/05/24 03:06:24;;;;;;;5.78;4.68;;;;;;;20.14;63.75;98750.63;4961155;28;20042;-78
2022/05/24 03:14:23;;;;;;;6.85;4.18;;;;;;;20.14;63.89;98737.97;4944345;28;20066;-78
2022/05/24 03:16:54;;;;;;;7.20;5.32;;;;;;;20.14;63.68;98740.66;4959332;28;20062;-78
2022/05/24 03:19:22;;;;;;;8.07;5.20;;;;;;;20.15;63.86;98738.81;4972753;28;20054;-78
2022/05/24 03:21:52;;;;;;;11.13;5.63;;;;;;;20.16;63.89;98749.34;4946934;28;20046;-78
2022/05/24 03:24:19;;;;;;;7.78;6.22;;;;;;;20.16;63.99;98745.84;4990170;28;20046;-81
2022/05/24 03:26:45;;;;;;;8.40;6.07;;;;;;;20.18;63.91;98754.53;4981348;28;20045;-76
2022/05/24 03:29:12;;;;;;;7.15;5.97;;;;;;;20.15;64.05;98753.13;4956355;28;20058;-79
2022/05/24 03:31:39;;;;;;;9.43;6.78;;;;;;;20.16;63.89;98762.84;4992590;28;20046;-80
2022/05/24 03:34:06;;;;;;;7.03;5.82;;;;;;;20.15;63.74;98768.47;4979498;28;20046;-81
2022/05/24 03:36:33;;;;;;;8.85;6.72;;;;;;;20.14;63.90;98769.50;4957263;28;20050;-80
2022/05/24 03:39:00;;;;;;;9.05;6.85;;;;;;;20.13;63.97;98781.34;5001686;28;20050;-81
2022/05/24 03:41:27;;;;;;;11.20;6.45;;;;;;;20.10;64.15;98768.31;4984717;28;20050;-81
2022/05/24 03:43:53;;;;;;;7.93;6.47;;;;;;;20.09;64.09;98763.97;4959280;28;20058;-80
2022/05/24 03:46:20;;;;;;;7.55;6.22;;;;;;;20.08;64.19;98765.00;4990767;28;20038;-81
2022/05/24 03:48:47;;;;;;;8.90;5.90;;;;;;;20.07;64.19;98769.56;4963841;28;20498;-81
2022/05/24 03:51:16;;;;;;;6.97;5.38;;;;;;;20.08;64.18;98770.41;4958607;28;20050;-82
2022/05/24 03:53:43;;;;;;;9.48;4.70;;;;;;;20.09;64.02;98772.03;4979778;28;20044;-77
2022/05/24 03:56:11;;;;;;;8.73;4.13;;;;;;;20.10;63.92;98773.72;4970800;28;20073;-81
2022/05/24 03:58:38;;;;;;;6.50;4.43;;;;;;;20.10;63.70;98768.31;4978021;28;20060;-78
2022/05/24 04:01:10;;;;;;;7.32;4.18;;;;;;;20.07;63.76;98758.78;4981430;28;20054;-81
2022/05/24 04:03:37;;;;;;;5.95;4.03;;;;;;;20.07;63.63;98766.88;4980249;28;20499;-82
2022/05/24 04:06:04;;;;;;;4.75;3.80;;;;;;;20.05;63.95;98770.81;4972917;28;21225;-78
2022/05/24 04:08:31;;;;;;;8.18;4.10;;;;;;;20.01;64.08;98781.25;4963514;28;20054;-78
2022/05/24 04:11:00;;;;;;;5.85;4.05;;;;;;;20.00;63.59;98789.53;4964349;28;20053;-82
2022/05/24 04:13:26;;;;;;;7.22;3.70;;;;;;;20.00;63.64;98785.00;4964137;28;20054;-82
2022/05/24 04:15:53;;;;;;;8.20;4.00;;;;;;;20.05;63.53;98787.00;4975845;28;20047;-82
2022/05/24 04:18:21;;;;;;;5.78;3.20;;;;;;;20.10;63.57;98779.09;4980184;28;20572;-82
2022/05/24 04:20:49;;;;;;;5.53;3.30;;;;;;;20.13;63.21;98776.75;4954259;28;20056;-81
2022/05/24 04:23:17;;;;;;;5.30;3.08;;;;;;;20.14;63.18;98778.41;4979594;28;20035;-81
2022/05/24 04:25:44;;;;;;;4.05;3.22;;;;;;;20.14;62.94;98778.41;4992602;28;20046;-81
2022/05/24 04:28:12;;;;;;;5.15;3.00;;;;;;;20.12;62.91;98783.22;4988549;28;20122;-82
2022/05/24 04:30:38;;;;;;;2.80;2.55;;;;;;;20.14;62.96;98789.19;4986529;28;20488;-82
2022/05/24 04:33:05;;;;;;;7.47;2.85;;;;;;;20.16;63.27;98781.69;4986808;28;20455;-78
2022/05/24 04:35:32;;;;;;;2.90;2.55;;;;;;;20.18;63.03;98786.88;4983960;28;20046;-78
2022/05/24 04:38:00;;;;;;;4.45;2.92;;;;;;;20.19;62.93;98785.81;4953255;28;20463;-78
2022/05/24 04:43:13;;;;;;;4.72;2.75;;;;;;;20.19;62.97;98804.69;4942613;28;20047;-83
2022/05/24 04:46:12;;;;;;;6.55;3.28;;;;;;;20.15;63.22;98811.59;4987513;28;20133;-89
2022/05/24 04:48:42;;;;;;;5.25;2.97;;;;;;;20.21;63.40;98808.00;4903894;28;20423;-88
2022/05/24 04:51:09;;;;;;;10.25;3.55;;;;;;;20.23;63.57;98805.09;4951725;28;20038;-84
2022/05/24 04:53:36;;;;;;;4.22;3.28;;;;;;;20.23;63.76;98805.91;4981004;28;20050;-86
2022/05/24 04:59:54;;;;;;;7.60;2.80;;;;;;;20.19;64.01;98820.03;4935311;28;20085;-84
2022/05/24 05:02:21;;;;;;;3.95;3.00;;;;;;;20.19;63.83;98814.66;4940191;28;20058;-79
2022/05/24 05:04:49;;;;;;;5.82;3.30;;;;;;;20.16;63.91;98822.13;4945866;28;20058;-80
2022/05/24 05:07:19;;;;;;;7.55;3.38;;;;;;;20.15;63.77;98822.38;4970827;28;20134;-79
2022/05/24 05:09:47;;;;;;;3.60;3.30;;;;;;;20.12;64.13;98815.56;4934836;28;20097;-79
2022/05/24 05:12:15;;;;;;;6.72;3.13;;;;;;;20.12;64.00;98814.72;4953827;28;20630;-79
2022/05/24 05:14:42;;;;;;;6.78;3.65;;;;;;;20.11;64.40;98818.47;4925946;28;20062;-80
2022/05/24 05:17:11;;;;;;;8.02;3.50;;;;;;;20.08;64.24;98827.00;4960958;28;20050;-81
2022/05/24 05:19:38;;;;;;;7.75;3.78;;;;;;;20.07;64.17;98828.03;4967785;28;20058;-79
2022/05/24 05:22:06;;;;;;;6.18;4.53;;;;;;;20.07;64.29;98825.34;4970190;28;20060;-80
2022/05/24 05:24:32;;;;;;;6.78;4.10;;;;;;;20.07;64.51;98839.63;4960368;28;20050;-78
2022/05/24 05:26:59;;;;;;;6.57;4.15;;;;;;;20.08;64.43;98851.25;4979556;28;20042;-81
2022/05/24 05:32:22;;;;;;;5.22;3.70;;;;;;;20.10;64.29;98852.69;4977913;28;20523;-80
2022/05/24 05:34:49;;;;;;;4.10;3.40;;;;;;;20.11;64.58;98846.22;4994707;28;20042;-78
2022/05/24 05:37:16;;;;;;;4.35;3.45;;;;;;;20.15;64.58;98847.44;4976264;28;20390;-79
2022/05/24 05:39:43;;;;;;;6.53;3.42;;;;;;;20.20;64.61;98845.94;4974634;28;20058;-81
2022/05/24 05:42:10;;;;;;;4.47;3.08;;;;;;;20.26;64.67;98845.06;4952544;28;20043;-82
2022/05/24 05:44:38;;;;;;;6.35;3.22;;;;;;;20.29;64.38;98850.81;4952737;28;20043;-83
2022/05/24 05:47:05;;;;;;;6.15;3.47;;;;;;;20.33;64.46;98845.84;4976202;28;20042;-81
2022/05/24 05:49:34;;;;;;;7.45;3.72;;;;;;;20.37;64.90;98860.50;4984420;28;20097;-82
2022/05/24 05:52:00;;;;;;;6.05;3.88;;;;;;;20.38;64.94;98854.88;4966922;28;20046;-82
2022/05/24 05:54:27;;;;;;;6.93;4.10;;;;;;;20.39;64.63;98863.78;4983563;28;20050;-82
2022/05/24 05:56:55;;;;;;;5.45;4.25;;;;;;;20.39;64.66;98870.00;4953053;28;20047;-81
2022/05/24 05:59:21;;;;;;;7.35;4.22;;;;;;;20.38;64.77;98872.94;4962178;28;20051;-81
2022/05/24 06:01:49;;;;;;;5.75;3.88;;;;;;;20.39;64.56;98871.88;4977070;28;20044;-81
2022/05/24 06:04:16;;;;;;;6.03;4.65;;;;;;;20.39;64.95;98861.09;4960602;28;20054;-81
2022/05/24 06:06:46;;;;;;;4.47;3.75;;;;;;;20.41;64.97;98867.09;4948792;28;20058;-80
2022/05/24 06:09:13;;;;;;;5.47;3.70;;;;;;;20.44;64.98;98866.66;4950526;28;20050;-80
2022/05/24 06:11:41;;;;;;;5.82;3.35;;;;;;;20.48;65.02;98865.16;4969141;28;20058;-80
2022/05/24 06:14:09;;;;;;;6.93;3.42;;;;;;;20.55;64.91;98867.81;4948678;28;20056;-83
2022/05/24 06:16:36;;;;;;;5.22;3.33;;;;;;;20.62;64.84;98859.66;4964199;28;20476;-78
2022/05/24 06:19:05;;;;;;;6.78;3.88;;;;;;;20.70;64.77;98854.75;4975910;28;20047;-79
2022/05/24 06:21:35;;;;;;;4.30;3.00;;;;;;;20.77;64.54;98857.41;4960397;28;20051;-79
2022/05/24 06:24:06;;;;;;;5.03;3.00;;;;;;;20.79;64.51;98852.59;4985083;28;20047;-78
2022/05/24 06:26:33;;;;;;;4.00;2.75;;;;;;;20.87;64.21;98857.69;4975203;28;20054;-80
2022/05/24 06:29:01;;;;;;;5.53;2.42;;;;;;;20.89;64.24;98861.00;4972933;28;20054;-79
2022/05/24 06:31:27;;;;;;;8.60;3.78;;;;;;;20.92;64.15;98862.41;4988257;28;20126;-80
2022/05/24 06:33:54;;;;;;;3.65;2.72;;;;;;;20.91;63.76;98864.25;4956991;28;20037;-80
2022/05/24 06:36:22;;;;;;;7.25;2.40;;;;;;;20.92;64.00;98857.84;4981531;28;20111;-79
2022/05/24 06:38:49;;;;;;;3.38;2.40;;;;;;;20.90;63.46;98865.31;4995195;28;20108;-80
2022/05/24 06:41:16;;;;;;;4.55;2.22;;;;;;;20.87;63.38;98873.88;4969893;28;20039;-80
2022/05/24 06:43:42;;;;;;;3.42;2.20;;;;;;;20.81;63.00;98940.38;4987930;28;20058;-81
2022/05/24 06:46:10;;;;;;;8.13;3.00;;;;;;;20.70;63.69;98934.88;4978218;28;20050;-81
2022/05/24 06:48:40;;;;;;;5.78;1.80;;;;;;;20.52;62.28;98939.16;4982635;28;20047;-81
2022/05/24 06:51:15;;;;;;;6.88;1.65;;;;;;;20.33;62.33;98946.41;4964033;28;20062;-84
2022/05/24 06:53:44;;;;;;;8.93;2.10;;;;;;;20.28;62.21;98951.63;4960573;28;20058;-80
2022/05/24 06:56:11;;;;;;;6.40;1.73;;;;;;;20.15;62.08;98944.47;4974876;28;20117;-81
2022/05/24 06:58:38;;;;;;;12.35;1.13;;;;;;;20.10;61.84;98947.00;4962150;28;20516;-80
2022/05/24 07:03:54;;;;;;;5.28;1.10;;;;;;;19.96;62.18;98956.22;4962274;28;20119;-83
2022/05/24 07:06:24;;;;;;;5.00;0.90;;;;;;;19.94;61.85;98972.59;4945087;28;20455;-79
2022/05/24 07:08:51;;;;;;;2.78;0.73;;;;;;;19.93;61.57;98983.63;4935464;28;20069;-80
2022/05/24 07:11:21;;;;;;;4.75;0.90;;;;;;;19.82;61.55;98992.38;4962038;28;20051;-79
2022/05/24 07:13:54;;;;;;;5.32;1.15;;;;;;;19.77;61.73;98990.34;4933932;28;20046;-79
2022/05/24 07:16:21;;;;;;;2.35;0.70;;;;;;;19.70;61.43;99001.16;4958350;28;20049;-81
2022/05/24 07:18:48;;;;;;;6.20;1.17;;;;;;;19.68;61.68;98999.72;4958083;28;20552;-81
2022/05/24 07:21:16;;;;;;;2.80;1.02;;;;;;;19.70;61.84;99008.41;4961320;28;20061;-83
2022/05/24 07:23:45;;;;;;;2.35;1.25;;;;;;;19.68;61.92;99024.78;4954469;28;20051;-80
2022/05/24 07:26:17;;;;;;;1.85;1.02;;;;;;;19.65;61.89;99029.75;4954326;28;20510;-80
2022/05/24 07:29:04;;;;;;;1.52;0.70;;;;;;;19.70;62.40;99033.47;4957780;28;20527;-81
2022/05/24 07:31:32;;;;;;;1.00;0.80;;;;;;;19.62;61.59;99041.78;4949056;28;20043;-80
2022/05/24 07:33:59;;;;;;;3.45;0.93;;;;;;;19.63;62.10;99037.19;4941976;28;20047;-79
2022/05/24 07:36:26;;;;;;;4.20;1.25;;;;;;;19.68;61.94;99037.41;4982684;28;20494;-79
2022/05/24 07:38:54;;;;;;;0.90;0.63;;;;;;;19.75;61.71;99035.53;4978909;28;20054;-79
2022/05/24 07:46:52;;;;;;;3.08;1.15;;;;;;;19.75;61.64;99043.59;4910678;28;20109;-78
2022/05/24 07:49:19;;;;;;;2.55;0.63;;;;;;;19.77;62.03;99044.22;4938944;28;20411;-78
2022/05/24 07:51:46;;;;;;;3.13;0.88;;;;;;;19.78;61.47;99059.34;4957989;28;20136;-79
2022/05/24 07:54:13;;;;;;;1.60;0.73;;;;;;;19.77;61.58;99041.53;4957060;28;20051;-78
2022/05/24 07:56:39;;;;;;;0.80;0.73;;;;;;;19.78;61.84;99035.09;4956956;28;20128;-78
2022/05/24 07:59:06;;;;;;;2.67;0.90;;;;;;;19.78;61.58;99043.16;4974231;28;20034;-80
2022/05/24 08:01:33;;;;;;;2.65;0.88;;;;;;;19.80;61.14;99041.09;4964202;28;20047;-79
2022/05/24 08:04:01;;;;;;;1.85;0.88;;;;;;;19.75;61.47;99056.25;4980733;28;20743;-78
2022/05/24 08:06:28;;;;;;;1.48;0.70;;;;;;;19.77;61.50;99044.22;4975625;28;20101;-78
2022/05/24 08:08:55;;;;;;;0.88;0.73;;;;;;;19.78;61.67;99056.63;4980578;28;20053;-79
2022/05/24 08:11:22;;;;;;;0.63;0.60;;;;;;;19.79;61.27;99065.53;4982341;28;20039;-79
2022/05/24 08:13:49;;;;;;;1.45;0.70;;;;;;;19.78;61.04;99061.22;4977181;28;20109;-79
2022/05/24 08:16:15;;;;;;;2.38;0.93;;;;;;;19.76;61.00;99064.09;4967066;28;20482;-80
2022/05/24 08:18:45;;;;;;;1.65;0.70;;;;;;;19.78;60.97;99077.38;4962654;28;20054;-80
2022/05/24 08:21:12;;;;;;;3.15;0.95;;;;;;;19.83;60.43;99081.06;4947265;28;20560;-80
2022/05/24 08:23:39;;;;;;;2.20;1.38;;;;;;;19.83;61.04;99080.25;4954941;28;20124;-78
2022/05/24 08:26:06;;;;;;;2.35;0.93;;;;;;;19.84;60.96;99080.00;4978005;28;20130;-79
2022/05/24 08:28:33;;;;;;;1.98;1.25;;;;;;;19.87;60.45;99086.84;4978851;28;20050;-79
2022/05/24 08:31:06;;;;;;;;;;;;;;;19.81;60.99;99090.41;4972934;28;20076;-79
2022/05/24 08:33:33;;;;;;;1.88;0.93;;;;;;;19.97;60.50;99092.59;4983215;28;19921;-79
2022/05/24 08:36:00;;;;;;;1.42;0.88;;;;;;;20.00;60.34;99102.13;4943719;28;20574;-83
2022/05/24 08:38:28;;;;;;;0.70;0.70;;;;;;;20.04;60.17;99097.97;4983341;28;20133;-81
2022/05/24 08:41:00;;;;;;;4.00;1.10;;;;;;;20.00;60.25;99116.44;4955647;28;20207;-79
2022/05/24 08:43:31;;;;;;;0.98;0.98;;;;;;;20.05;60.21;99113.09;4987319;28;20051;-79
2022/05/24 08:49:05;;;;;;;1.63;0.80;;;;;;;20.01;59.77;99099.22;4923265;28;20051;-78
2022/05/24 08:51:48;;;;;;;2.05;1.10;;;;;;;20.00;59.33;99097.59;4910982;28;20051;-78
2022/05/24 08:54:26;;;;;;;2.58;1.20;;;;;;;20.07;58.61;99111.00;4959625;28;20054;-78
2022/05/24 08:57:03;;;;;;;2.92;1.00;;;;;;;20.10;58.73;99118.69;4993321;28;20100;-77
2022/05/24 08:59:34;;;;;;;2.10;0.85;;;;;;;20.06;59.15;99126.34;4976164;28;20054;-78
2022/05/24 09:02:02;;;;;;;1.63;0.85;;;;;;;20.06;59.22;99117.44;4964523;28;20062;-78
2022/05/24 09:04:30;;;;;;;3.25;0.80;;;;;;;20.09;59.26;99119.72;4949174;28;20077;-78
2022/05/24 09:07:19;;;;;;;0.88;0.80;;;;;;;20.09;59.05;99112.44;4987514;28;20046;-80
2022/05/24 09:09:48;;;;;;;1.98;1.00;;;;;;;20.19;59.10;99120.06;4954232;28;20089;-78
2022/05/24 09:12:42;;;;;;;2.47;0.80;;;;;;;20.23;58.80;99120.47;4970855;28;20047;-78
2022/05/24 09:15:11;;;;;;;1.42;0.90;;;;;;;20.29;59.48;99125.00;4941151;28;20849;-78
2022/05/24 09:18:00;;;;;;;1.17;0.85;;;;;;;20.31;58.52;99131.81;4974479;28;20049;-79
2022/05/24 09:20:44;;;;;;;2.60;1.10;;;;;;;20.18;57.47;99131.91;4989428;28;20038;-77
2022/05/24 09:23:13;;;;;;;1.38;0.82;;;;;;;20.13;58.52;99124.47;4991990;28;20042;-77
2022/05/24 09:25:57;;;;;;;2.55;0.90;;;;;;;20.17;58.12;99124.84;4973087;28;20046;-79
2022/05/24 09:28:47;;;;;;;1.13;0.75;;;;;;;20.26;57.98;99133.53;5006503;28;20050;-78
2022/05/24 09:31:23;;;;;;;2.95;0.95;;;;;;;20.38;57.81;99123.72;4940456;28;20130;-78
2022/05/24 09:33:59;;;;;;;1.42;0.98;;;;;;;20.37;56.64;99119.34;4987273;28;20047;-78
2022/05/24 09:36:32;;;;;;;1.67;0.82;;;;;;;20.24;57.30;99124.81;4968222;28;20146;-78
2022/05/24 09:39:00;;;;;;;2.80;1.02;;;;;;;20.26;57.75;99117.34;4960542;28;20050;-77
2022/05/24 09:41:27;;;;;;;2.28;0.60;;;;;;;20.32;57.50;99127.25;4974948;28;20049;-80
2022/05/24 09:44:12;;;;;;;1.48;0.88;;;;;;;20.30;57.14;99115.84;4974360;28;20125;-78
2022/05/24 09:46:42;;;;;;;1.50;1.10;;;;;;;20.43;57.21;99114.94;4923708;28;20058;-79
2022/05/24 09:49:23;;;;;;;3.72;0.85;;;;;;;20.31;56.87;99117.53;4956585;28;20519;-81
2022/05/24 09:51:56;;;;;;;4.05;1.20;;;;;;;20.35;57.36;99118.72;4989145;28;20405;-81
2022/05/24 09:54:26;;;;;;;1.95;0.90;;;;;;;20.27;56.97;99127.91;4976310;28;20138;-81
2022/05/24 09:57:08;;;;;;;2.03;1.10;;;;;;;20.26;56.20;99122.75;4959330;28;20051;-80
2022/05/24 09:59:39;;;;;;;1.88;0.90;;;;;;;20.27;57.40;99127.06;4943019;28;21096;-77
2022/05/24 10:02:29;;;;;;;3.58;1.45;;;;;;;20.28;56.32;99137.66;4972837;28;20601;-78
2022/05/24 10:04:58;;;;;;;1.98;1.08;;;;;;;20.41;56.72;99139.44;4976939;28;20136;-81
2022/05/24 10:07:33;;;;;;;1.80;0.88;;;;;;;20.41;57.03;99141.31;4992772;28;20129;-79
2022/05/24 10:10:10;;;;;;;1.17;0.98;;;;;;;20.44;55.85;99146.28;4960630;28;20054;-80
2022/05/24 10:12:47;;;;;;;2.80;0.85;;;;;;;20.33;55.42;99148.63;4938534;28;20050;-81
2022/05/24 10:15:29;;;;;;;1.70;0.90;;;;;;;20.36;55.54;99163.53;4964322;28;20046;-79
2022/05/24 10:18:24;;;;;;;2.97;0.88;;;;;;;20.35;54.96;99164.56;4998195;28;20057;-79
2022/05/24 10:21:14;;;;;;;3.88;1.13;;;;;;;20.29;54.60;99149.25;4948213;28;20050;-81
2022/05/24 10:24:03;;;;;;;1.02;0.93;;;;;;;20.11;54.67;99150.78;4937953;28;20042;-79
2022/05/24 10:26:56;;;;;;;3.20;1.00;;;;;;;20.02;55.04;99162.03;4962512;28;20050;-79
2022/05/24 10:30:01;;;;;;;1.85;1.20;;;;;;;20.07;55.28;99168.44;4954932;28;20385;-79
2022/05/24 10:38:33;;;;;;;1.30;0.80;;;;;;;20.13;53.40;99177.53;4967109;28;20054;-77
2022/05/24 10:41:12;;;;;;;2.65;0.80;;;;;;;20.03;53.47;99178.00;4967994;28;20063;-76
2022/05/24 10:44:01;;;;;;;3.00;0.90;;;;;;;20.00;53.66;99189.22;4957885;28;20504;-77
2022/05/24 10:46:35;;;;;;;2.47;1.08;;;;;;;20.08;54.07;99196.22;4970306;28;20125;-78
2022/05/24 10:49:19;;;;;;;2.42;0.80;;;;;;;20.12;53.45;99187.50;4978351;28;20073;-78
2022/05/24 10:51:51;;;;;;;4.82;1.25;;;;;;;20.11;53.25;99171.53;4956568;28;20417;-78
2022/05/24 10:54:46;;;;;;;1.92;1.02;;;;;;;20.12;53.21;99181.25;4990548;28;20038;-80
2022/05/24 10:57:22;;;;;;;2.35;0.90;;;;;;;20.12;51.68;99184.81;4947212;28;20058;-79
2022/05/24 11:00:08;;;;;;;3.78;0.82;;;;;;;20.11;50.86;99183.13;4941533;28;20057;-79
2022/05/24 11:02:41;;;;;;;2.22;0.90;;;;;;;20.21;51.35;99173.78;4981692;28;20050;-82
2022/05/24 11:05:26;;;;;;;1.15;0.88;;;;;;;20.15;51.90;99172.78;4950080;28;20073;-78
2022/05/24 11:13:39;;;;;;;0.70;0.70;;;;;;;20.14;53.48;99179.19;4775373;29;20039;-81
2022/05/24 11:16:19;;;;;;;1.38;0.90;;;;;;;20.13;52.84;99177.53;4790724;29;20420;-80
2022/05/24 11:18:46;;;;;;;2.78;1.45;;;;;;;20.28;53.29;99183.50;4809244;29;20777;-83
2022/05/24 11:21:23;;;;;;;1.17;1.02;;;;;;;20.28;52.99;99177.28;4793511;29;20733;-83
2022/05/24 11:24:02;;;;;;;2.83;0.93;;;;;;;20.35;52.88;99173.50;4743093;29;20059;-79
2022/05/24 11:26:33;;;;;;;3.55;1.13;;;;;;;20.41;53.35;99168.28;4806366;29;20065;-79
2022/05/24 11:29:37;;;;;;;2.90;1.00;;;;;;;20.27;51.89;99146.78;4799242;29;20075;-79
2022/05/24 11:32:06;;;;;;;;;;;;;;;20.35;52.45;99149.25;4821279;29;20077;-80
2022/05/24 11:34:40;;;;;;;1.00;1.00;;;;;;;20.44;52.43;99154.38;4833312;29;19924;-80
2022/05/24 11:37:26;;;;;;;2.45;0.90;;;;;;;20.48;51.16;99153.72;4826742;29;20382;-80
2022/05/24 11:39:53;;;;;;;2.10;0.90;;;;;;;20.56;51.60;99140.00;4858072;28;20042;-77
2022/05/24 11:42:32;;;;;;;1.05;0.90;;;;;;;20.62;51.02;99159.06;4975039;28;20046;-79
2022/05/24 11:45:00;;;;;;;1.70;1.00;;;;;;;20.67;51.52;99148.44;4984602;28;21421;-80
2022/05/24 11:47:34;;;;;;;1.40;0.80;;;;;;;20.69;50.71;99141.78;4967004;28;20446;-82
2022/05/24 11:50:04;;;;;;;1.33;1.10;;;;;;;20.69;51.18;99146.38;4932355;28;20112;-79
2022/05/24 11:52:49;;;;;;;0.85;0.68;;;;;;;20.59;49.73;99160.31;4975225;28;20042;-79
2022/05/24 11:55:54;;;;;;;1.38;0.80;;;;;;;20.67;48.45;99170.03;4957318;28;20049;-78
2022/05/24 11:58:41;;;;;;;2.33;1.00;;;;;;;20.65;49.31;99167.53;4958219;28;20443;-78
2022/05/24 12:01:13;;;;;;;1.58;1.10;;;;;;;20.75;50.68;99161.66;4909358;28;20068;-79
2022/05/24 12:10:06;;;;;;;1.90;0.85;;;;;;;20.70;48.37;99150.69;4935522;28;20042;-79
2022/05/24 12:13:03;;;;;;;4.00;0.80;;;;;;;20.71;48.14;99163.13;4970645;28;20053;-79
2022/05/24 12:15:37;;;;;;;1.67;0.90;;;;;;;20.81;48.13;99161.63;4961257;28;20059;-80
2022/05/24 12:21:50;;;;;;;3.67;0.90;;;;;;;20.96;48.54;99163.16;4901783;28;20112;-82
2022/05/24 12:24:29;;;;;;;0.93;0.70;;;;;;;20.97;47.23;99173.75;4957454;28;20656;-81
2022/05/24 12:27:27;;;;;;;2.33;0.95;;;;;;;20.98;47.90;99172.69;4956249;28;20524;-84
2022/05/24 12:30:03;;;;;;;2.45;0.80;;;;;;;21.12;47.96;99170.72;4947803;28;20467;-80
2022/05/24 12:32:33;;;;;;;0.93;0.80;;;;;;;21.04;48.27;99165.63;4953019;28;20061;-81
2022/05/24 12:35:10;;;;;;;0.82;0.80;;;;;;;20.97;47.85;99172.94;4938251;28;20047;-86
2022/05/24 12:37:51;;;;;;;0.73;0.65;;;;;;;20.94;46.19;99182.28;4895493;28;20042;-83
2022/05/24 12:40:19;;;;;;;1.30;0.85;;;;;;;20.98;47.97;99174.56;4969388;28;20054;-77
2022/05/24 12:42:55;;;;;;;2.00;0.80;;;;;;;20.92;47.33;99173.59;4991957;28;20057;-79
2022/05/24 12:45:33;;;;;;;0.85;0.85;;;;;;;20.88;47.98;99164.25;4955773;28;20051;-81
2022/05/24 12:48:00;;;;;;;1.77;0.60;;;;;;;21.01;47.23;99172.28;4987580;28;20047;-78